createdAt,value
2018-08-25T00:00:34.000Z,31.1
2018-08-25T00:01:34.000Z,31.1
2018-08-25T00:03:19.000Z,31.1
2018-08-25T00:04:34.000Z,31.1
2018-08-25T00:06:34.000Z,31.1
2018-08-25T00:08:34.000Z,31.1
2018-08-25T00:09:34.000Z,31.1
2018-08-25T00:11:34.000Z,31
2018-08-25T00:13:34.000Z,31
2018-08-25T00:15:34.000Z,30.9
2018-08-25T00:50:34.000Z,29.2
2018-08-25T00:51:34.000Z,29.4
2018-08-25T00:53:34.000Z,29.8
2018-08-25T00:54:34.000Z,30
2018-08-25T00:56:34.000Z,30.2
2018-08-25T00:58:19.000Z,30.3
2018-08-25T00:59:34.000Z,30.4
2018-08-25T01:00:34.000Z,30.4
2018-08-25T01:01:34.000Z,30.5
2018-08-25T01:03:34.000Z,30.6
2018-08-25T01:05:34.000Z,30.6
2018-08-25T01:06:34.000Z,30.7
2018-08-25T01:08:34.000Z,30.7
2018-08-25T01:09:34.000Z,30.7
2018-08-25T01:11:34.000Z,30.8
2018-08-25T01:13:34.000Z,30.9
2018-08-25T01:15:34.000Z,30.9
2018-08-25T01:16:34.000Z,30.9
2018-08-25T01:17:34.000Z,30.9
2018-08-25T01:18:34.000Z,31
2018-08-25T01:20:34.000Z,31.1
2018-08-25T01:22:34.000Z,31.1
2018-08-25T01:24:34.000Z,31.1
2018-08-25T01:25:34.000Z,31.1
2018-08-25T01:27:19.000Z,31.1
2018-08-25T01:28:34.000Z,31.1
2018-08-25T01:29:34.000Z,31.1
2018-08-25T01:31:34.000Z,31
2018-08-25T01:33:34.000Z,30.9
2018-08-25T01:34:34.000Z,30.9
2018-08-25T01:36:34.000Z,30.9
2018-08-25T01:37:34.000Z,31
2018-08-25T01:38:34.000Z,31
2018-08-25T01:39:34.000Z,31.1
2018-08-25T01:41:34.000Z,31.1
2018-08-25T01:42:34.000Z,31.1
2018-08-25T01:43:35.000Z,31.2
2018-08-25T01:45:35.000Z,31.2
2018-08-25T01:47:20.000Z,31.2
2018-08-25T01:48:35.000Z,31.1
2018-08-25T01:49:35.000Z,31.1
2018-08-25T01:51:35.000Z,31.1
2018-08-25T01:53:35.000Z,31.1
2018-08-25T01:54:35.000Z,31
2018-08-25T01:55:35.000Z,31.1
2018-08-25T01:57:35.000Z,31.1
2018-08-25T01:59:35.000Z,31
2018-08-25T02:01:35.000Z,31
2018-08-25T02:03:35.000Z,30.9
2018-08-25T02:05:35.000Z,30.9
2018-08-25T02:07:35.000Z,30.9
2018-08-25T02:09:35.000Z,30.8
2018-08-25T02:11:35.000Z,30.8
2018-08-25T02:13:35.000Z,30.8
2018-08-25T02:15:35.000Z,30.8
2018-08-25T02:16:35.000Z,30.8
2018-08-25T02:17:35.000Z,30.8
2018-08-25T02:19:35.000Z,30.9
2018-08-25T02:21:35.000Z,30.9
2018-08-25T02:22:35.000Z,30.9
2018-08-25T02:24:35.000Z,31
2018-08-25T02:25:35.000Z,31
2018-08-25T02:26:35.000Z,31
2018-08-25T02:28:35.000Z,31.1
2018-08-25T02:29:35.000Z,31.1
2018-08-25T02:30:35.000Z,31.1
2018-08-25T02:32:35.000Z,31
2018-08-25T02:34:20.000Z,31
2018-08-25T02:35:35.000Z,31
2018-08-25T02:37:20.000Z,31
2018-08-25T02:38:35.000Z,30.9
2018-08-25T02:40:35.000Z,30.9
2018-08-25T02:41:35.000Z,30.9
2018-08-25T02:43:35.000Z,31
2018-08-25T02:45:35.000Z,30.9
2018-08-25T02:46:35.000Z,30.9
2018-08-25T02:48:35.000Z,30.9
2018-08-25T02:50:35.000Z,30.9
2018-08-25T02:52:35.000Z,30.9
2018-08-25T02:54:35.000Z,30.9
2018-08-25T02:56:35.000Z,30.9
2018-08-25T02:58:35.000Z,30.8
2018-08-25T02:59:35.000Z,30.8
2018-08-25T03:01:35.000Z,30.9
2018-08-25T03:03:35.000Z,30.9
2018-08-25T03:04:35.000Z,30.9
2018-08-25T03:06:35.000Z,30.9
2018-08-25T03:07:35.000Z,30.9
2018-08-25T03:09:35.000Z,31
2018-08-25T03:10:35.000Z,31
2018-08-25T03:11:35.000Z,31
2018-08-25T03:12:35.000Z,31.1
2018-08-25T03:14:35.000Z,31.1
2018-08-25T03:15:35.000Z,31.1
2018-08-25T03:17:19.000Z,31.1
2018-08-25T03:18:35.000Z,31
2018-08-25T03:20:35.000Z,31
2018-08-25T03:21:35.000Z,31
2018-08-25T03:23:35.000Z,31
2018-08-25T03:24:35.000Z,31
2018-08-25T03:26:35.000Z,31.1
2018-08-25T03:28:35.000Z,31.1
2018-08-25T03:30:35.000Z,31
2018-08-25T03:31:35.000Z,31
2018-08-25T03:33:35.000Z,31.1
2018-08-25T03:35:35.000Z,31
2018-08-25T03:36:35.000Z,31
2018-08-25T03:38:35.000Z,31
2018-08-25T03:40:35.000Z,31
2018-08-25T03:42:35.000Z,30.9
2018-08-25T03:44:35.000Z,30.9
2018-08-25T03:46:35.000Z,30.9
2018-08-25T03:47:35.000Z,30.9
2018-08-25T03:48:35.000Z,31
2018-08-25T03:50:19.000Z,31.1
2018-08-25T03:51:35.000Z,31
2018-08-25T03:52:35.000Z,31.1
2018-08-25T03:53:35.000Z,31.1
2018-08-25T03:55:19.000Z,31.1
2018-08-25T03:56:35.000Z,31.1
2018-08-25T03:57:35.000Z,31.1
2018-08-25T03:59:35.000Z,31.1
2018-08-25T04:01:35.000Z,31
2018-08-25T04:02:35.000Z,31
2018-08-25T04:04:35.000Z,31
2018-08-25T04:06:35.000Z,30.9
2018-08-25T04:07:35.000Z,30.9
2018-08-25T04:09:35.000Z,30.9
2018-08-25T04:11:19.000Z,30.9
2018-08-25T04:12:35.000Z,30.9
2018-08-25T04:14:35.000Z,30.9
2018-08-25T04:16:19.000Z,30.9
2018-08-25T04:17:35.000Z,30.9
2018-08-25T04:18:35.000Z,30.9
2018-08-25T04:20:35.000Z,30.9
2018-08-25T04:22:35.000Z,30.9
2018-08-25T04:23:35.000Z,30.9
2018-08-25T04:24:35.000Z,30.9
2018-08-25T04:26:35.000Z,31
2018-08-25T04:28:35.000Z,31
2018-08-25T04:30:35.000Z,30.9
2018-08-25T04:31:35.000Z,30.9
2018-08-25T04:32:35.000Z,30.9
2018-08-25T04:33:35.000Z,30.9
2018-08-25T04:34:35.000Z,31
2018-08-25T04:35:35.000Z,31.1
2018-08-25T04:36:35.000Z,31.1
2018-08-25T04:38:35.000Z,31.2
2018-08-25T04:40:35.000Z,31.1
2018-08-25T04:41:35.000Z,31.1
2018-08-25T04:42:35.000Z,31.1
2018-08-25T04:44:35.000Z,31.1
2018-08-25T04:45:35.000Z,31.1
2018-08-25T04:47:35.000Z,31.1
2018-08-25T04:49:35.000Z,31
2018-08-25T04:50:35.000Z,31
2018-08-25T04:52:35.000Z,31.1
2018-08-25T04:54:35.000Z,31
2018-08-25T04:56:34.000Z,31
2018-08-25T04:58:34.000Z,30.9
2018-08-25T04:59:34.000Z,30.9
2018-08-25T05:00:34.000Z,31
2018-08-25T05:02:34.000Z,31
2018-08-25T05:03:34.000Z,31
2018-08-25T05:05:34.000Z,31
2018-08-25T05:07:34.000Z,31
2018-08-25T05:08:34.000Z,31
2018-08-25T05:10:19.000Z,31
2018-08-25T05:11:34.000Z,30.9
2018-08-25T05:12:34.000Z,31
2018-08-25T05:14:34.000Z,31
2018-08-25T05:15:34.000Z,31
2018-08-25T05:17:34.000Z,31
2018-08-25T05:19:34.000Z,30.9
2018-08-25T05:21:34.000Z,30.8
2018-08-25T05:23:34.000Z,30.8
2018-08-25T05:25:34.000Z,30.8
2018-08-25T05:27:34.000Z,30.8
2018-08-25T05:28:34.000Z,30.8
2018-08-25T05:30:19.000Z,30.8
2018-08-25T05:31:34.000Z,30.8
2018-08-25T05:33:34.000Z,30.8
2018-08-25T05:34:34.000Z,30.8
2018-08-25T05:36:34.000Z,30.9
2018-08-25T05:38:34.000Z,30.9
2018-08-25T05:40:34.000Z,30.9
2018-08-25T05:41:34.000Z,30.9
2018-08-25T05:43:34.000Z,30.9
2018-08-25T05:44:34.000Z,31
2018-08-25T05:46:34.000Z,31
2018-08-25T05:47:34.000Z,31
2018-08-25T05:49:34.000Z,31
2018-08-25T05:50:34.000Z,31.1
2018-08-25T05:51:34.000Z,31.1
2018-08-25T05:53:34.000Z,31.1
2018-08-25T05:54:34.000Z,31.2
2018-08-25T05:56:34.000Z,31.2
2018-08-25T05:58:35.000Z,31.2
2018-08-25T06:00:35.000Z,31.2
2018-08-25T06:02:35.000Z,31.2
2018-08-25T06:03:35.000Z,31.2
2018-08-25T06:05:35.000Z,31.2
2018-08-25T06:06:35.000Z,31.2
2018-08-25T06:08:35.000Z,31.3
2018-08-25T06:10:35.000Z,31.3
2018-08-25T06:12:35.000Z,31.3
2018-08-25T06:13:35.000Z,31.3
2018-08-25T06:15:35.000Z,31.4
2018-08-25T06:17:20.000Z,31.4
2018-08-25T06:18:35.000Z,31.4
2018-08-25T06:19:35.000Z,31.5
2018-08-25T06:21:20.000Z,31.5
2018-08-25T06:22:35.000Z,31.5
2018-08-25T06:24:35.000Z,31.5
2018-08-25T06:25:35.000Z,31.5
2018-08-25T06:27:35.000Z,31.6
2018-08-25T06:29:35.000Z,31.6
2018-08-25T06:30:35.000Z,31.6
2018-08-25T06:32:35.000Z,31.6
2018-08-25T06:33:35.000Z,31.6
2018-08-25T06:34:35.000Z,31.6
2018-08-25T06:35:35.000Z,31.7
2018-08-25T06:37:20.000Z,31.8
2018-08-25T06:38:35.000Z,31.8
2018-08-25T06:40:35.000Z,31.8
2018-08-25T06:42:35.000Z,31.8
2018-08-25T06:43:35.000Z,31.8
2018-08-25T06:45:35.000Z,31.8
2018-08-25T06:47:35.000Z,31.7
2018-08-25T06:49:35.000Z,31.7
2018-08-25T06:50:35.000Z,31.7
2018-08-25T06:52:20.000Z,31.7
2018-08-25T06:53:35.000Z,31.7
2018-08-25T06:54:35.000Z,31.7
2018-08-25T06:55:35.000Z,31.8
2018-08-25T06:56:35.000Z,31.8
2018-08-25T06:57:35.000Z,31.9
2018-08-25T06:59:20.000Z,32
2018-08-25T07:00:35.000Z,32
2018-08-25T07:02:35.000Z,31.9
2018-08-25T07:04:35.000Z,31.8
2018-08-25T07:05:35.000Z,31.8
2018-08-25T07:06:35.000Z,31.8
2018-08-25T07:07:35.000Z,31.9
2018-08-25T07:09:35.000Z,31.9
2018-08-25T07:11:35.000Z,31.8
2018-08-25T07:12:35.000Z,31.8
2018-08-25T07:14:35.000Z,31.8
2018-08-25T07:16:35.000Z,31.8
2018-08-25T07:18:35.000Z,31.9
2018-08-25T07:19:35.000Z,31.9
2018-08-25T07:20:35.000Z,31.9
2018-08-25T07:22:35.000Z,31.9
2018-08-25T07:24:35.000Z,31.9
2018-08-25T07:25:35.000Z,31.8
2018-08-25T07:26:35.000Z,31.9
2018-08-25T07:28:35.000Z,32
2018-08-25T07:29:35.000Z,32.1
2018-08-25T07:31:35.000Z,32.2
2018-08-25T07:32:35.000Z,32.2
2018-08-25T07:33:35.000Z,32.3
2018-08-25T07:35:35.000Z,32.4
2018-08-25T07:36:35.000Z,32.3
2018-08-25T07:38:35.000Z,32.3
2018-08-25T07:40:35.000Z,32.2
2018-08-25T07:41:35.000Z,32.2
2018-08-25T07:43:35.000Z,32.2
2018-08-25T07:44:35.000Z,32.2
2018-08-25T07:46:35.000Z,32.3
2018-08-25T07:47:35.000Z,32.3
2018-08-25T07:49:35.000Z,32.3
2018-08-25T07:50:35.000Z,32.3
2018-08-25T07:51:35.000Z,32.3
2018-08-25T07:53:35.000Z,32.3
2018-08-25T07:54:35.000Z,32.3
2018-08-25T07:56:35.000Z,32.3
2018-08-25T07:58:35.000Z,32.2
2018-08-25T07:59:35.000Z,32.2
2018-08-25T08:01:35.000Z,32.1
2018-08-25T08:02:35.000Z,32.1
2018-08-25T08:03:35.000Z,32.1
2018-08-25T08:05:35.000Z,32.1
2018-08-25T08:06:35.000Z,32.1
2018-08-25T08:07:35.000Z,32.2
2018-08-25T08:09:35.000Z,32.1
2018-08-25T08:10:35.000Z,32.1
2018-08-25T08:11:35.000Z,32.1
2018-08-25T08:13:35.000Z,32
2018-08-25T08:15:20.000Z,31.9
2018-08-25T08:16:35.000Z,31.9
2018-08-25T08:17:35.000Z,32
2018-08-25T08:18:35.000Z,32.1
2018-08-25T08:20:35.000Z,32.4
2018-08-25T08:22:35.000Z,32.6
2018-08-25T08:24:35.000Z,32.9
2018-08-25T08:25:35.000Z,33.1
2018-08-25T08:26:35.000Z,33.3
2018-08-25T08:28:35.000Z,33.6
2018-08-25T08:30:20.000Z,33.8
2018-08-25T08:31:35.000Z,33.8
2018-08-25T08:32:35.000Z,33.9
2018-08-25T08:34:35.000Z,34.1
2018-08-25T08:36:35.000Z,34.3
2018-08-25T08:37:35.000Z,34.5
2018-08-25T08:39:35.000Z,34.5
2018-08-25T08:41:35.000Z,34.4
2018-08-25T08:42:35.000Z,34.3
2018-08-25T08:44:35.000Z,33.9
2018-08-25T08:46:35.000Z,33.5
2018-08-25T08:47:35.000Z,33.3
2018-08-25T08:49:35.000Z,33.1
2018-08-25T08:51:35.000Z,32.9
2018-08-25T08:52:35.000Z,32.8
2018-08-25T08:54:35.000Z,32.6
2018-08-25T08:55:35.000Z,32.5
2018-08-25T08:57:35.000Z,32.5
2018-08-25T08:59:35.000Z,32.4
2018-08-25T09:01:35.000Z,32.3
2018-08-25T09:02:35.000Z,32.2
2018-08-25T09:04:35.000Z,32.2
2018-08-25T09:05:35.000Z,32.2
2018-08-25T09:07:35.000Z,32.2
2018-08-25T09:08:35.000Z,32.2
2018-08-25T09:10:34.000Z,32.2
2018-08-25T09:11:34.000Z,32.2
2018-08-25T09:13:34.000Z,32.1
2018-08-25T09:14:34.000Z,32.1
2018-08-25T09:16:34.000Z,32.1
2018-08-25T09:17:34.000Z,32.1
2018-08-25T09:19:19.000Z,32.2
2018-08-25T09:20:34.000Z,32.3
2018-08-25T09:22:34.000Z,32.4
2018-08-25T09:23:34.000Z,32.5
2018-08-25T09:24:34.000Z,32.6
2018-08-25T09:26:34.000Z,32.7
2018-08-25T09:27:34.000Z,32.7
2018-08-25T09:29:34.000Z,32.8
2018-08-25T09:30:34.000Z,32.8
2018-08-25T09:31:34.000Z,32.8
2018-08-25T09:33:34.000Z,32.8
2018-08-25T09:34:34.000Z,32.7
2018-08-25T09:36:34.000Z,32.7
2018-08-25T09:38:34.000Z,32.6
2018-08-25T09:39:34.000Z,32.5
2018-08-25T09:41:34.000Z,32.5
2018-08-25T09:42:34.000Z,32.5
2018-08-25T09:43:34.000Z,32.6
2018-08-25T09:45:34.000Z,32.8
2018-08-25T09:46:34.000Z,32.8
2018-08-25T09:47:34.000Z,32.9
2018-08-25T09:49:34.000Z,32.9
2018-08-25T09:51:34.000Z,32.8
2018-08-25T09:53:34.000Z,32.6
2018-08-25T09:55:34.000Z,32.4
2018-08-25T09:57:34.000Z,32.2
2018-08-25T09:58:34.000Z,32.1
2018-08-25T10:00:34.000Z,32
2018-08-25T10:02:34.000Z,32
2018-08-25T10:04:34.000Z,32
2018-08-25T10:05:34.000Z,32
2018-08-25T10:07:34.000Z,32.1
2018-08-25T10:08:34.000Z,32.2
2018-08-25T10:10:34.000Z,32.3
2018-08-25T10:11:34.000Z,32.3
2018-08-25T10:13:35.000Z,32.5
2018-08-25T10:15:35.000Z,32.6
2018-08-25T10:16:35.000Z,32.7
2018-08-25T10:18:35.000Z,32.9
2018-08-25T10:19:35.000Z,33
2018-08-25T10:20:35.000Z,33.1
2018-08-25T10:22:20.000Z,33.2
2018-08-25T10:23:35.000Z,33.2
2018-08-25T10:24:35.000Z,33.1
2018-08-25T10:26:35.000Z,33
2018-08-25T10:28:35.000Z,32.8
2018-08-25T10:29:35.000Z,32.8
2018-08-25T10:30:35.000Z,32.8
2018-08-25T10:31:35.000Z,33.1
2018-08-25T10:33:35.000Z,34.7
2018-08-25T10:35:35.000Z,36.9
2018-08-25T10:36:35.000Z,37.9
2018-08-25T10:37:35.000Z,38.4
2018-08-25T10:39:35.000Z,38.1
2018-08-25T10:41:35.000Z,36.8
2018-08-25T10:43:35.000Z,36.2
2018-08-25T10:44:35.000Z,36.5
2018-08-25T10:46:35.000Z,37.7
2018-08-25T10:48:35.000Z,39.3
2018-08-25T10:49:35.000Z,39.2
2018-08-25T10:51:35.000Z,38.6
2018-08-25T10:53:35.000Z,38.1
2018-08-25T10:55:35.000Z,37.2
2018-08-25T10:57:35.000Z,37.4
2018-08-25T10:58:35.000Z,38.4
2018-08-25T11:00:35.000Z,40.5
2018-08-25T11:02:35.000Z,41.7
2018-08-25T11:03:35.000Z,41.7
2018-08-25T11:05:35.000Z,40.4
2018-08-25T11:07:35.000Z,38.8
2018-08-25T11:08:35.000Z,38.1
2018-08-25T11:10:35.000Z,37
2018-08-25T11:11:35.000Z,36.7
2018-08-25T11:12:35.000Z,36.7
2018-08-25T11:13:35.000Z,37.3
2018-08-25T11:14:35.000Z,38.4
2018-08-25T11:16:35.000Z,39.3
2018-08-25T11:17:35.000Z,39
2018-08-25T11:18:35.000Z,38.7
2018-08-25T11:20:35.000Z,38.1
2018-08-25T11:21:35.000Z,37.7
2018-08-25T11:23:35.000Z,36.8
2018-08-25T11:25:20.000Z,36.2
2018-08-25T11:26:35.000Z,35.7
2018-08-25T11:27:35.000Z,35.9
2018-08-25T11:29:35.000Z,38
2018-08-25T11:31:35.000Z,40
2018-08-25T11:33:35.000Z,42
2018-08-25T11:34:35.000Z,42.8
2018-08-25T11:35:35.000Z,43.5
2018-08-25T11:37:35.000Z,42.5
2018-08-25T11:38:35.000Z,41.7
2018-08-25T11:39:35.000Z,41
2018-08-25T11:41:35.000Z,40.2
2018-08-25T11:42:35.000Z,39.6
2018-08-25T11:44:35.000Z,38.5
2018-08-25T11:45:35.000Z,38
2018-08-25T11:46:35.000Z,37.6
2018-08-25T11:47:35.000Z,37.2
2018-08-25T11:48:35.000Z,36.9
2018-08-25T11:49:35.000Z,36.6
2018-08-25T11:51:35.000Z,36
2018-08-25T11:53:35.000Z,35.5
2018-08-25T11:54:35.000Z,35.3
2018-08-25T11:56:35.000Z,35
2018-08-25T11:57:35.000Z,34.9
2018-08-25T11:59:35.000Z,34.7
2018-08-25T12:00:35.000Z,34.6
2018-08-25T12:02:35.000Z,34.4
2018-08-25T12:04:35.000Z,34.2
2018-08-25T12:05:35.000Z,34.2
2018-08-25T12:07:20.000Z,34.2
2018-08-25T12:08:35.000Z,34.1
2018-08-25T12:09:35.000Z,34.1
2018-08-25T12:10:35.000Z,34.2
2018-08-25T12:12:35.000Z,34.2
2018-08-25T12:13:35.000Z,34.3
2018-08-25T12:14:35.000Z,34.4
2018-08-25T12:15:35.000Z,34.6
2018-08-25T12:17:35.000Z,34.9
2018-08-25T12:18:35.000Z,35.2
2018-08-25T12:20:35.000Z,36.3
2018-08-25T12:22:20.000Z,37.4
2018-08-25T12:23:35.000Z,37.6
2018-08-25T12:24:35.000Z,38.6
2018-08-25T12:26:35.000Z,40.7
2018-08-25T12:27:35.000Z,41.6
2018-08-25T12:28:35.000Z,42.4
2018-08-25T12:30:20.000Z,43.4
2018-08-25T12:31:35.000Z,43.8
2018-08-25T12:32:35.000Z,43.8
2018-08-25T12:33:35.000Z,43.5
2018-08-25T12:35:35.000Z,43.8
2018-08-25T12:37:20.000Z,42.8
2018-08-25T12:38:35.000Z,42.7
2018-08-25T12:39:35.000Z,42
2018-08-25T12:41:35.000Z,40.2
2018-08-25T12:42:35.000Z,39.4
2018-08-25T12:43:35.000Z,38.7
2018-08-25T12:44:35.000Z,38.2
2018-08-25T12:46:35.000Z,37.2
2018-08-25T12:48:35.000Z,36.3
2018-08-25T12:49:35.000Z,36
2018-08-25T12:50:35.000Z,35.7
2018-08-25T12:51:35.000Z,35.5
2018-08-25T12:52:35.000Z,35.3
2018-08-25T12:54:35.000Z,35
2018-08-25T12:56:35.000Z,34.7
2018-08-25T12:57:35.000Z,34.6
2018-08-25T12:59:20.000Z,34.5
2018-08-25T13:00:35.000Z,34.3
2018-08-25T13:02:35.000Z,34.1
2018-08-25T13:03:35.000Z,34
2018-08-25T13:04:35.000Z,34
2018-08-25T13:06:35.000Z,33.9
2018-08-25T13:07:35.000Z,33.9
2018-08-25T13:08:35.000Z,33.8
2018-08-25T13:10:35.000Z,33.8
2018-08-25T13:12:20.000Z,33.7
2018-08-25T13:13:35.000Z,33.6
2018-08-25T13:14:35.000Z,33.6
2018-08-25T13:16:35.000Z,33.6
2018-08-25T13:18:35.000Z,33.5
2018-08-25T13:20:20.000Z,33.4
2018-08-25T13:21:35.000Z,33.3
2018-08-25T13:22:35.000Z,33.3
2018-08-25T13:24:34.000Z,33.3
2018-08-25T13:26:34.000Z,33.2
2018-08-25T13:28:34.000Z,33.2
2018-08-25T13:29:34.000Z,33.3
2018-08-25T13:31:19.000Z,33.4
2018-08-25T13:32:34.000Z,34.3
2018-08-25T13:34:34.000Z,34.8
2018-08-25T13:35:34.000Z,35.5
2018-08-25T13:37:19.000Z,36.4
2018-08-25T13:38:34.000Z,36.6
2018-08-25T13:40:34.000Z,36
2018-08-25T13:42:34.000Z,35.2
2018-08-25T13:43:34.000Z,35
2018-08-25T13:44:34.000Z,34.7
2018-08-25T13:46:19.000Z,34.5
2018-08-25T13:47:34.000Z,34.2
2018-08-25T13:49:34.000Z,33.9
2018-08-25T13:51:34.000Z,33.6
2018-08-25T13:52:34.000Z,33.5
2018-08-25T13:54:34.000Z,33.4
2018-08-25T13:55:34.000Z,33.3
2018-08-25T13:57:34.000Z,33.3
2018-08-25T13:59:34.000Z,33.1
2018-08-25T14:00:34.000Z,33
2018-08-25T14:01:34.000Z,33.1
2018-08-25T14:02:34.000Z,33.1
2018-08-25T14:03:34.000Z,33.1
2018-08-25T14:04:34.000Z,33.2
2018-08-25T14:06:34.000Z,33.2
2018-08-25T14:08:34.000Z,33
2018-08-25T14:09:34.000Z,33
2018-08-25T14:11:19.000Z,32.9
2018-08-25T14:12:34.000Z,32.8
2018-08-25T14:14:19.000Z,32.8
2018-08-25T14:15:34.000Z,32.7
2018-08-25T14:17:34.000Z,32.7
2018-08-25T14:19:34.000Z,32.7
2018-08-25T14:21:34.000Z,32.6
2018-08-25T14:23:34.000Z,32.6
2018-08-25T14:24:34.000Z,32.7
2018-08-25T14:26:19.000Z,32.7
2018-08-25T14:27:34.000Z,32.6
2018-08-25T14:29:35.000Z,32.6
2018-08-25T14:30:35.000Z,32.6
2018-08-25T14:31:35.000Z,32.7
2018-08-25T14:33:35.000Z,32.7
2018-08-25T14:35:35.000Z,32.6
2018-08-25T14:37:19.000Z,32.6
2018-08-25T14:38:35.000Z,32.6
2018-08-25T14:40:35.000Z,32.7
2018-08-25T14:41:35.000Z,32.7
2018-08-25T14:42:35.000Z,32.7
2018-08-25T14:44:35.000Z,32.7
2018-08-25T14:45:35.000Z,32.7
2018-08-25T14:46:35.000Z,32.8
2018-08-25T14:48:35.000Z,32.9
2018-08-25T14:50:35.000Z,33
2018-08-25T14:52:35.000Z,32.9
2018-08-25T14:53:35.000Z,32.9
2018-08-25T14:55:35.000Z,33
2018-08-25T14:56:35.000Z,33
2018-08-25T14:58:35.000Z,33.1
2018-08-25T15:00:35.000Z,33
2018-08-25T15:01:35.000Z,33
2018-08-25T15:03:35.000Z,33.1
2018-08-25T15:05:35.000Z,33.1
2018-08-25T15:06:35.000Z,33.2
2018-08-25T15:08:35.000Z,33.2
2018-08-25T15:09:35.000Z,33.3
2018-08-25T15:10:35.000Z,33.4
2018-08-25T15:11:35.000Z,33.5
2018-08-25T15:13:35.000Z,33.6
2018-08-25T15:15:35.000Z,33.6
2018-08-25T15:16:35.000Z,33.6
2018-08-25T15:17:35.000Z,33.6
2018-08-25T15:18:35.000Z,33.6
2018-08-25T15:19:35.000Z,33.6
2018-08-25T15:21:35.000Z,33.5
2018-08-25T15:23:35.000Z,33.4
2018-08-25T15:24:35.000Z,33.3
2018-08-25T15:26:35.000Z,33.3
2018-08-25T15:27:35.000Z,33.3
2018-08-25T15:29:19.000Z,33.3
2018-08-25T15:30:35.000Z,33.2
2018-08-25T15:31:35.000Z,33.2
2018-08-25T15:33:35.000Z,33.2
2018-08-25T15:35:20.000Z,33.1
2018-08-25T15:36:35.000Z,33.1
2018-08-25T15:37:35.000Z,33
2018-08-25T15:39:35.000Z,32.9
2018-08-25T15:41:35.000Z,32.8
2018-08-25T15:42:35.000Z,32.7
2018-08-25T15:44:35.000Z,32.7
2018-08-25T15:46:35.000Z,32.7
2018-08-25T15:48:35.000Z,32.6
2018-08-25T15:50:35.000Z,32.5
2018-08-25T15:52:35.000Z,32.5
2018-08-25T15:53:35.000Z,32.5
2018-08-25T15:55:35.000Z,32.5
2018-08-25T15:56:35.000Z,32.5
2018-08-25T15:57:35.000Z,32.5
2018-08-25T15:59:35.000Z,32.5
2018-08-25T16:01:35.000Z,32.5
2018-08-25T16:02:35.000Z,32.5
2018-08-25T16:04:35.000Z,32.4
2018-08-25T16:06:20.000Z,32.4
2018-08-25T16:07:35.000Z,32.3
2018-08-25T16:08:35.000Z,32.3
2018-08-25T16:10:35.000Z,32.3
2018-08-25T16:12:35.000Z,32.3
2018-08-25T16:14:35.000Z,32.3
2018-08-25T16:16:20.000Z,32.3
2018-08-25T16:17:35.000Z,32.2
2018-08-25T16:18:35.000Z,32.2
2018-08-25T16:19:35.000Z,32.3
2018-08-25T16:20:35.000Z,32.3
2018-08-25T16:22:35.000Z,32.3
2018-08-25T16:23:35.000Z,32.3
2018-08-25T16:25:35.000Z,32.4
2018-08-25T16:27:35.000Z,32.3
2018-08-25T16:28:35.000Z,32.3
2018-08-25T16:30:35.000Z,32.3
2018-08-25T16:31:35.000Z,32.4
2018-08-25T16:32:35.000Z,32.3
2018-08-25T16:33:35.000Z,32.4
2018-08-25T16:35:34.000Z,32.4
2018-08-25T16:36:34.000Z,32.4
2018-08-25T16:38:34.000Z,32.4
2018-08-25T16:40:34.000Z,32.3
2018-08-25T16:41:34.000Z,32.3
2018-08-25T16:42:34.000Z,32.4
2018-08-25T16:43:34.000Z,32.4
2018-08-25T16:45:34.000Z,32.4
2018-08-25T16:46:34.000Z,32.4
2018-08-25T16:48:34.000Z,32.4
2018-08-25T16:50:34.000Z,32.3
2018-08-25T16:52:34.000Z,32.2
2018-08-25T16:53:34.000Z,32.1
2018-08-25T16:54:34.000Z,32.1
2018-08-25T16:55:34.000Z,32.2
2018-08-25T16:57:34.000Z,32.2
2018-08-25T16:59:34.000Z,32.2
2018-08-25T17:01:34.000Z,32.2
2018-08-25T17:02:34.000Z,32.2
2018-08-25T17:03:34.000Z,32.3
2018-08-25T17:04:34.000Z,32.3
2018-08-25T17:06:34.000Z,32.4
2018-08-25T17:07:34.000Z,32.4
2018-08-25T17:09:34.000Z,32.5
2018-08-25T17:10:34.000Z,32.5
2018-08-25T17:11:34.000Z,32.5
2018-08-25T17:13:34.000Z,32.5
2018-08-25T17:15:34.000Z,32.4
2018-08-25T17:17:19.000Z,32.4
2018-08-25T17:18:34.000Z,32.3
2018-08-25T17:19:34.000Z,32.3
2018-08-25T17:21:34.000Z,32.3
2018-08-25T17:22:34.000Z,32.3
2018-08-25T17:24:34.000Z,32.3
2018-08-25T17:26:34.000Z,32.3
2018-08-25T17:28:34.000Z,32.2
2018-08-25T17:29:34.000Z,32.2
2018-08-25T17:31:34.000Z,32.3
2018-08-25T17:32:34.000Z,32.3
2018-08-25T17:34:34.000Z,32.3
2018-08-25T17:35:34.000Z,32.3
2018-08-25T17:37:34.000Z,32.3
2018-08-25T17:39:35.000Z,32.2
2018-08-25T17:41:35.000Z,32.2
2018-08-25T17:43:35.000Z,32
2018-08-25T17:44:35.000Z,32
2018-08-25T17:46:20.000Z,32
2018-08-25T17:47:35.000Z,32
2018-08-25T17:49:35.000Z,32
2018-08-25T17:51:35.000Z,32
2018-08-25T17:52:35.000Z,32
2018-08-25T17:54:35.000Z,32
2018-08-25T17:56:35.000Z,32
2018-08-25T17:58:20.000Z,32
2018-08-25T17:59:35.000Z,31.9
2018-08-25T18:01:35.000Z,32
2018-08-25T18:03:35.000Z,31.9
2018-08-25T18:05:35.000Z,31.9
2018-08-25T18:07:35.000Z,31.8
2018-08-25T18:08:35.000Z,31.8
2018-08-25T18:10:35.000Z,31.8
2018-08-25T18:12:35.000Z,31.9
2018-08-25T18:14:20.000Z,31.9
2018-08-25T18:15:35.000Z,31.9
2018-08-25T18:17:35.000Z,31.8
2018-08-25T18:18:35.000Z,31.9
2018-08-25T18:19:35.000Z,31.9
2018-08-25T18:21:35.000Z,31.9
2018-08-25T18:23:35.000Z,31.9
2018-08-25T18:25:35.000Z,31.8
2018-08-25T18:27:35.000Z,31.8
2018-08-25T18:29:35.000Z,31.8
2018-08-25T18:30:35.000Z,31.8
2018-08-25T18:32:35.000Z,31.8
2018-08-25T18:33:35.000Z,31.8
2018-08-25T18:34:35.000Z,31.8
2018-08-25T18:36:35.000Z,31.9
2018-08-25T18:38:35.000Z,31.9
2018-08-25T18:39:35.000Z,31.9
2018-08-25T18:41:35.000Z,31.9
2018-08-25T18:42:35.000Z,31.9
2018-08-25T18:44:34.000Z,31.9
2018-08-25T18:46:34.000Z,31.8
2018-08-25T18:47:34.000Z,31.8
2018-08-25T18:49:19.000Z,31.8
2018-08-25T18:50:34.000Z,31.8
2018-08-25T18:51:34.000Z,31.8
2018-08-25T18:53:34.000Z,31.8
2018-08-25T18:54:34.000Z,31.8
2018-08-25T18:56:34.000Z,31.8
2018-08-25T18:57:34.000Z,31.8
2018-08-25T18:59:34.000Z,31.8
2018-08-25T19:00:34.000Z,31.8
2018-08-25T19:01:34.000Z,31.9
2018-08-25T19:02:34.000Z,31.9
2018-08-25T19:03:34.000Z,31.9
2018-08-25T19:05:34.000Z,32
2018-08-25T19:06:34.000Z,32
2018-08-25T19:08:34.000Z,31.9
2018-08-25T19:10:34.000Z,31.9
2018-08-25T19:12:34.000Z,31.8
2018-08-25T19:14:34.000Z,31.6
2018-08-25T19:16:34.000Z,31.5
2018-08-25T19:17:34.000Z,31.5
2018-08-25T19:18:34.000Z,31.6
2018-08-25T19:19:34.000Z,31.7
2018-08-25T19:20:34.000Z,31.7
2018-08-25T19:22:19.000Z,31.8
2018-08-25T19:23:34.000Z,31.7
2018-08-25T19:25:34.000Z,31.7
2018-08-25T19:26:34.000Z,31.7
2018-08-25T19:27:34.000Z,31.8
2018-08-25T19:28:34.000Z,31.8
2018-08-25T19:30:34.000Z,31.9
2018-08-25T19:32:34.000Z,31.8
2018-08-25T19:33:34.000Z,31.7
2018-08-25T19:35:19.000Z,31.7
2018-08-25T19:36:34.000Z,31.7
2018-08-25T19:37:34.000Z,31.7
2018-08-25T19:39:19.000Z,31.7
2018-08-25T19:40:34.000Z,31.7
2018-08-25T19:42:34.000Z,31.6
2018-08-25T19:44:19.000Z,31.6
2018-08-25T19:45:34.000Z,31.6
2018-08-25T19:46:35.000Z,31.6
2018-08-25T19:47:35.000Z,31.6
2018-08-25T19:49:35.000Z,31.7
2018-08-25T19:50:35.000Z,31.6
2018-08-25T19:52:20.000Z,31.7
2018-08-25T19:53:35.000Z,31.6
2018-08-25T19:55:35.000Z,31.6
2018-08-25T19:57:20.000Z,31.6
2018-08-25T19:58:35.000Z,31.6
2018-08-25T20:00:35.000Z,31.5
2018-08-25T20:01:35.000Z,31.5
2018-08-25T20:02:35.000Z,31.6
2018-08-25T20:04:35.000Z,31.6
2018-08-25T20:05:35.000Z,31.7
2018-08-25T20:07:35.000Z,31.7
2018-08-25T20:08:35.000Z,31.7
2018-08-25T20:09:35.000Z,31.7
2018-08-25T20:11:35.000Z,31.7
2018-08-25T20:13:35.000Z,31.7
2018-08-25T20:14:35.000Z,31.7
2018-08-25T20:15:35.000Z,31.8
2018-08-25T20:17:35.000Z,31.8
2018-08-25T20:19:35.000Z,31.7
2018-08-25T20:21:35.000Z,31.6
2018-08-25T20:22:35.000Z,31.6
2018-08-25T20:24:35.000Z,31.6
2018-08-25T20:26:35.000Z,31.6
2018-08-25T20:27:35.000Z,31.6
2018-08-25T20:29:35.000Z,31.6
2018-08-25T20:30:35.000Z,31.6
2018-08-25T20:31:35.000Z,31.7
2018-08-25T20:33:35.000Z,31.7
2018-08-25T20:35:35.000Z,31.6
2018-08-25T20:37:20.000Z,31.5
2018-08-25T20:38:35.000Z,31.5
2018-08-25T20:40:35.000Z,31.5
2018-08-25T20:41:35.000Z,31.5
2018-08-25T20:43:35.000Z,31.5
2018-08-25T20:44:35.000Z,31.5
2018-08-25T20:45:35.000Z,31.6
2018-08-25T20:47:35.000Z,31.6
2018-08-25T20:48:35.000Z,31.5
2018-08-25T20:49:35.000Z,31.5
2018-08-25T20:51:35.000Z,31.5
2018-08-25T20:52:35.000Z,31.5
2018-08-25T20:53:35.000Z,31.5
2018-08-25T20:55:35.000Z,31.5
2018-08-25T20:56:35.000Z,31.5
2018-08-25T20:58:35.000Z,31.6
2018-08-25T20:59:35.000Z,31.6
2018-08-25T21:01:35.000Z,31.6
2018-08-25T21:02:35.000Z,31.6